Martin, South Carolina
Current Conditions -  °F | °C
As of 5:15 PM on Thursday 23 Oct 2014 (Local Time) from KBNL Reporting Station
Clear Clear  
Wind Chill: 72°   Ceiling: Unl
Heat Index: 72°   Visibility: 10mi
Dew Point: 39°   Wind: 6mph
Humidity: 31%   Direction: 310°NW
Pressure: 30"   Gusts: NA
Location:  33.07°N, 81.48°W
Report Text: KBNL 232115Z AUTO 31005KT 10SM CLR 22/04 A3000 RMK AO2
Loading
Personal Weather Stations






























Interactive Weather Map
Tropical Storm Tracking
New forecast layout! Learn more

10-Day Weather Forecast

Advertisements
Track Severe Weather on mobile